sensor_id;sensor_type;location;lat;lon;timestamp;P1;durP1;ratioP1;P2;durP2;ratioP2
11911;SDS011;6016;41.928;25.556;2023-07-13T00:00:01;12.52;;;8.38;;
11911;SDS011;6016;41.928;25.556;2023-07-13T00:02:33;10.25;;;8.18;;
11911;SDS011;6016;41.928;25.556;2023-07-13T00:04:59;11.50;;;8.65;;
11911;SDS011;6016;41.928;25.556;2023-07-13T00:07:26;10.55;;;8.25;;
11911;SDS011;6016;41.928;25.556;2023-07-13T00:09:53;11.13;;;8.52;;
11911;SDS011;6016;41.928;25.556;2023-07-13T00:12:24;9.73;;;8.23;;
11911;SDS011;6016;41.928;25.556;2023-07-13T00:14:52;12.18;;;8.23;;
11911;SDS011;6016;41.928;25.556;2023-07-13T00:17:20;12.73;;;8.57;;
11911;SDS011;6016;41.928;25.556;2023-07-13T00:19:47;13.93;;;9.43;;
11911;SDS011;6016;41.928;25.556;2023-07-13T00:22:14;11.32;;;8.40;;
11911;SDS011;6016;41.928;25.556;2023-07-13T00:24:43;12.32;;;7.90;;
11911;SDS011;6016;41.928;25.556;2023-07-13T00:27:10;10.05;;;8.05;;
11911;SDS011;6016;41.928;25.556;2023-07-13T00:29:37;11.30;;;8.70;;
11911;SDS011;6016;41.928;25.556;2023-07-13T00:32:05;12.63;;;8.65;;
11911;SDS011;6016;41.928;25.556;2023-07-13T00:34:35;13.73;;;8.57;;
11911;SDS011;6016;41.928;25.556;2023-07-13T00:37:03;10.90;;;9.02;;
11911;SDS011;6016;41.928;25.556;2023-07-13T00:39:31;10.82;;;8.48;;
11911;SDS011;6016;41.928;25.556;2023-07-13T00:41:58;11.05;;;8.63;;
11911;SDS011;6016;41.928;25.556;2023-07-13T00:44:26;13.45;;;8.38;;
11911;SDS011;6016;41.928;25.556;2023-07-13T00:46:53;10.63;;;7.82;;
11911;SDS011;6016;41.928;25.556;2023-07-13T00:49:22;9.88;;;8.07;;
11911;SDS011;6016;41.928;25.556;2023-07-13T00:51:52;12.80;;;9.52;;
11911;SDS011;6016;41.928;25.556;2023-07-13T00:54:22;12.05;;;8.60;;
11911;SDS011;6016;41.928;25.556;2023-07-13T00:56:53;12.13;;;9.03;;
11911;SDS011;6016;41.928;25.556;2023-07-13T00:59:22;11.45;;;8.30;;
11911;SDS011;6016;41.928;25.556;2023-07-13T01:01:49;12.15;;;8.35;;
11911;SDS011;6016;41.928;25.556;2023-07-13T01:04:16;12.43;;;9.00;;
11911;SDS011;6016;41.928;25.556;2023-07-13T01:06:44;14.20;;;9.52;;
11911;SDS011;6016;41.928;25.556;2023-07-13T01:09:13;15.70;;;9.75;;
11911;SDS011;6016;41.928;25.556;2023-07-13T01:11:41;13.02;;;9.38;;
11911;SDS011;6016;41.928;25.556;2023-07-13T01:14:10;13.63;;;9.60;;
11911;SDS011;6016;41.928;25.556;2023-07-13T01:16:37;16.17;;;9.82;;
11911;SDS011;6016;41.928;25.556;2023-07-13T01:19:14;11.40;;;8.88;;
11911;SDS011;6016;41.928;25.556;2023-07-13T01:21:51;12.38;;;9.13;;
11911;SDS011;6016;41.928;25.556;2023-07-13T01:24:19;13.38;;;9.25;;
11911;SDS011;6016;41.928;25.556;2023-07-13T01:26:45;12.82;;;9.55;;
11911;SDS011;6016;41.928;25.556;2023-07-13T01:29:12;13.43;;;9.95;;
11911;SDS011;6016;41.928;25.556;2023-07-13T01:31:39;13.63;;;9.38;;
11911;SDS011;6016;41.928;25.556;2023-07-13T01:34:06;12.77;;;10.05;;
11911;SDS011;6016;41.928;25.556;2023-07-13T01:36:33;15.00;;;9.98;;
11911;SDS011;6016;41.928;25.556;2023-07-13T01:39:02;14.10;;;9.55;;
11911;SDS011;6016;41.928;25.556;2023-07-13T01:41:29;16.63;;;9.57;;
11911;SDS011;6016;41.928;25.556;2023-07-13T01:43:56;13.55;;;9.35;;
11911;SDS011;6016;41.928;25.556;2023-07-13T01:46:23;15.52;;;10.82;;
11911;SDS011;6016;41.928;25.556;2023-07-13T01:48:51;15.07;;;10.60;;
11911;SDS011;6016;41.928;25.556;2023-07-13T01:51:18;15.00;;;10.93;;
11911;SDS011;6016;41.928;25.556;2023-07-13T01:53:45;13.00;;;9.85;;
11911;SDS011;6016;41.928;25.556;2023-07-13T01:56:13;14.05;;;9.73;;
11911;SDS011;6016;41.928;25.556;2023-07-13T01:58:40;11.70;;;9.18;;
11911;SDS011;6016;41.928;25.556;2023-07-13T02:01:07;12.77;;;9.77;;
11911;SDS011;6016;41.928;25.556;2023-07-13T02:03:34;14.90;;;10.40;;
11911;SDS011;6016;41.928;25.556;2023-07-13T02:06:01;12.98;;;10.00;;
11911;SDS011;6016;41.928;25.556;2023-07-13T02:08:28;11.40;;;9.65;;
11911;SDS011;6016;41.928;25.556;2023-07-13T02:10:55;12.38;;;9.55;;
11911;SDS011;6016;41.928;25.556;2023-07-13T02:13:23;14.48;;;10.40;;
11911;SDS011;6016;41.928;25.556;2023-07-13T02:15:50;16.10;;;10.80;;
11911;SDS011;6016;41.928;25.556;2023-07-13T02:18:18;14.15;;;10.80;;
11911;SDS011;6016;41.928;25.556;2023-07-13T02:20:45;15.23;;;11.05;;
11911;SDS011;6016;41.928;25.556;2023-07-13T02:23:11;15.48;;;11.50;;
11911;SDS011;6016;41.928;25.556;2023-07-13T02:25:38;20.60;;;12.05;;
11911;SDS011;6016;41.928;25.556;2023-07-13T02:28:06;16.23;;;10.70;;
11911;SDS011;6016;41.928;25.556;2023-07-13T02:30:34;15.63;;;10.40;;
11911;SDS011;6016;41.928;25.556;2023-07-13T02:33:01;14.10;;;10.57;;
11911;SDS011;6016;41.928;25.556;2023-07-13T02:35:28;16.05;;;11.13;;
11911;SDS011;6016;41.928;25.556;2023-07-13T02:37:55;18.95;;;11.77;;
11911;SDS011;6016;41.928;25.556;2023-07-13T02:40:22;18.05;;;11.00;;
11911;SDS011;6016;41.928;25.556;2023-07-13T02:42:49;12.93;;;10.18;;
11911;SDS011;6016;41.928;25.556;2023-07-13T02:45:16;14.38;;;10.27;;
11911;SDS011;6016;41.928;25.556;2023-07-13T02:47:44;14.93;;;11.05;;
11911;SDS011;6016;41.928;25.556;2023-07-13T02:50:11;15.13;;;10.93;;
11911;SDS011;6016;41.928;25.556;2023-07-13T02:52:38;16.73;;;11.32;;
11911;SDS011;6016;41.928;25.556;2023-07-13T02:55:05;13.73;;;10.68;;
11911;SDS011;6016;41.928;25.556;2023-07-13T02:57:32;13.98;;;10.55;;
11911;SDS011;6016;41.928;25.556;2023-07-13T02:59:59;18.73;;;11.93;;
11911;SDS011;6016;41.928;25.556;2023-07-13T03:02:26;13.60;;;10.48;;
11911;SDS011;6016;41.928;25.556;2023-07-13T03:04:55;12.68;;;9.57;;
11911;SDS011;6016;41.928;25.556;2023-07-13T03:07:21;15.18;;;10.90;;
11911;SDS011;6016;41.928;25.556;2023-07-13T03:09:48;16.02;;;11.15;;
11911;SDS011;6016;41.928;25.556;2023-07-13T03:12:15;12.75;;;10.30;;
11911;SDS011;6016;41.928;25.556;2023-07-13T03:14:42;16.63;;;11.27;;
11911;SDS011;6016;41.928;25.556;2023-07-13T03:17:09;15.68;;;11.55;;
11911;SDS011;6016;41.928;25.556;2023-07-13T03:19:35;14.75;;;11.60;;
11911;SDS011;6016;41.928;25.556;2023-07-13T03:22:04;16.15;;;11.32;;
11911;SDS011;6016;41.928;25.556;2023-07-13T03:24:32;15.90;;;10.32;;
11911;SDS011;6016;41.928;25.556;2023-07-13T03:27:00;14.75;;;10.48;;
11911;SDS011;6016;41.928;25.556;2023-07-13T03:29:27;14.63;;;10.90;;
11911;SDS011;6016;41.928;25.556;2023-07-13T03:31:54;15.77;;;10.90;;
11911;SDS011;6016;41.928;25.556;2023-07-13T03:34:21;16.83;;;10.55;;
11911;SDS011;6016;41.928;25.556;2023-07-13T03:36:48;14.35;;;10.55;;
11911;SDS011;6016;41.928;25.556;2023-07-13T03:39:16;16.70;;;10.25;;
11911;SDS011;6016;41.928;25.556;2023-07-13T03:41:43;15.60;;;10.93;;
11911;SDS011;6016;41.928;25.556;2023-07-13T03:44:10;16.27;;;10.65;;
11911;SDS011;6016;41.928;25.556;2023-07-13T03:46:37;15.27;;;10.65;;
11911;SDS011;6016;41.928;25.556;2023-07-13T03:49:05;16.83;;;10.85;;
11911;SDS011;6016;41.928;25.556;2023-07-13T03:51:32;16.92;;;11.38;;
11911;SDS011;6016;41.928;25.556;2023-07-13T03:53:58;15.48;;;10.57;;
11911;SDS011;6016;41.928;25.556;2023-07-13T03:56:27;15.48;;;11.52;;
11911;SDS011;6016;41.928;25.556;2023-07-13T03:58:53;17.15;;;11.10;;
11911;SDS011;6016;41.928;25.556;2023-07-13T04:01:21;15.48;;;10.60;;
11911;SDS011;6016;41.928;25.556;2023-07-13T04:03:50;17.75;;;11.63;;
11911;SDS011;6016;41.928;25.556;2023-07-13T04:06:17;15.38;;;10.68;;
11911;SDS011;6016;41.928;25.556;2023-07-13T04:08:47;16.85;;;11.00;;
11911;SDS011;6016;41.928;25.556;2023-07-13T04:11:15;16.33;;;11.30;;
11911;SDS011;6016;41.928;25.556;2023-07-13T04:13:44;15.48;;;11.52;;
11911;SDS011;6016;41.928;25.556;2023-07-13T04:16:12;15.77;;;10.85;;
11911;SDS011;6016;41.928;25.556;2023-07-13T04:18:39;14.00;;;11.18;;
11911;SDS011;6016;41.928;25.556;2023-07-13T04:21:06;17.33;;;10.82;;
11911;SDS011;6016;41.928;25.556;2023-07-13T04:23:33;17.38;;;11.02;;
11911;SDS011;6016;41.928;25.556;2023-07-13T04:26:00;13.57;;;10.32;;
11911;SDS011;6016;41.928;25.556;2023-07-13T04:28:27;17.35;;;10.80;;
11911;SDS011;6016;41.928;25.556;2023-07-13T04:30:55;18.15;;;11.23;;
11911;SDS011;6016;41.928;25.556;2023-07-13T04:33:22;13.85;;;10.27;;
11911;SDS011;6016;41.928;25.556;2023-07-13T04:35:50;14.98;;;11.13;;
11911;SDS011;6016;41.928;25.556;2023-07-13T04:38:19;17.60;;;12.15;;
11911;SDS011;6016;41.928;25.556;2023-07-13T04:40:46;15.88;;;10.70;;
11911;SDS011;6016;41.928;25.556;2023-07-13T04:43:14;15.95;;;10.50;;
11911;SDS011;6016;41.928;25.556;2023-07-13T04:45:41;14.57;;;10.18;;
11911;SDS011;6016;41.928;25.556;2023-07-13T04:48:09;18.45;;;12.38;;
11911;SDS011;6016;41.928;25.556;2023-07-13T04:50:36;18.85;;;11.52;;
11911;SDS011;6016;41.928;25.556;2023-07-13T04:53:05;15.07;;;10.30;;
11911;SDS011;6016;41.928;25.556;2023-07-13T04:55:32;16.83;;;10.80;;
11911;SDS011;6016;41.928;25.556;2023-07-13T04:57:59;19.17;;;12.68;;
11911;SDS011;6016;41.928;25.556;2023-07-13T05:00:27;19.70;;;12.15;;
11911;SDS011;6016;41.928;25.556;2023-07-13T05:02:55;21.13;;;11.88;;
11911;SDS011;6016;41.928;25.556;2023-07-13T05:05:23;16.30;;;11.68;;
11911;SDS011;6016;41.928;25.556;2023-07-13T05:07:51;14.95;;;11.30;;
11911;SDS011;6016;41.928;25.556;2023-07-13T05:10:18;13.93;;;9.90;;
11911;SDS011;6016;41.928;25.556;2023-07-13T05:12:45;18.52;;;11.30;;
11911;SDS011;6016;41.928;25.556;2023-07-13T05:15:12;19.52;;;11.57;;
11911;SDS011;6016;41.928;25.556;2023-07-13T05:17:39;18.30;;;12.35;;
11911;SDS011;6016;41.928;25.556;2023-07-13T05:20:06;19.05;;;12.10;;
11911;SDS011;6016;41.928;25.556;2023-07-13T05:22:35;17.17;;;11.88;;
11911;SDS011;6016;41.928;25.556;2023-07-13T05:25:04;18.30;;;11.63;;
11911;SDS011;6016;41.928;25.556;2023-07-13T05:27:32;20.27;;;11.75;;
11911;SDS011;6016;41.928;25.556;2023-07-13T05:29:59;17.05;;;11.30;;
11911;SDS011;6016;41.928;25.556;2023-07-13T05:32:26;15.45;;;12.13;;
11911;SDS011;6016;41.928;25.556;2023-07-13T05:34:53;16.38;;;11.55;;
11911;SDS011;6016;41.928;25.556;2023-07-13T05:37:20;13.63;;;10.15;;
11911;SDS011;6016;41.928;25.556;2023-07-13T05:39:48;13.68;;;10.05;;
11911;SDS011;6016;41.928;25.556;2023-07-13T05:42:15;16.33;;;10.32;;
11911;SDS011;6016;41.928;25.556;2023-07-13T05:44:41;16.75;;;9.80;;
11911;SDS011;6016;41.928;25.556;2023-07-13T05:47:08;14.25;;;9.85;;
11911;SDS011;6016;41.928;25.556;2023-07-13T05:49:35;13.93;;;9.43;;
11911;SDS011;6016;41.928;25.556;2023-07-13T05:52:02;17.23;;;10.45;;
11911;SDS011;6016;41.928;25.556;2023-07-13T05:54:29;16.40;;;10.15;;
11911;SDS011;6016;41.928;25.556;2023-07-13T05:56:57;14.13;;;10.00;;
11911;SDS011;6016;41.928;25.556;2023-07-13T05:59:24;16.38;;;10.63;;
11911;SDS011;6016;41.928;25.556;2023-07-13T06:01:51;13.32;;;9.77;;
11911;SDS011;6016;41.928;25.556;2023-07-13T06:04:18;13.57;;;9.77;;
11911;SDS011;6016;41.928;25.556;2023-07-13T06:06:45;20.80;;;10.65;;
11911;SDS011;6016;41.928;25.556;2023-07-13T06:09:12;15.63;;;10.20;;
11911;SDS011;6016;41.928;25.556;2023-07-13T06:11:38;17.95;;;11.00;;
11911;SDS011;6016;41.928;25.556;2023-07-13T06:14:07;16.55;;;10.48;;
11911;SDS011;6016;41.928;25.556;2023-07-13T06:16:33;17.58;;;10.32;;
11911;SDS011;6016;41.928;25.556;2023-07-13T06:19:00;19.55;;;10.80;;
11911;SDS011;6016;41.928;25.556;2023-07-13T06:21:27;15.70;;;10.05;;
11911;SDS011;6016;41.928;25.556;2023-07-13T06:23:54;13.02;;;9.57;;
11911;SDS011;6016;41.928;25.556;2023-07-13T06:26:21;13.13;;;9.95;;
11911;SDS011;6016;41.928;25.556;2023-07-13T06:28:48;13.05;;;9.90;;
11911;SDS011;6016;41.928;25.556;2023-07-13T06:31:16;14.80;;;10.27;;
11911;SDS011;6016;41.928;25.556;2023-07-13T06:33:43;13.25;;;10.18;;
11911;SDS011;6016;41.928;25.556;2023-07-13T06:36:10;13.23;;;9.65;;
11911;SDS011;6016;41.928;25.556;2023-07-13T06:38:37;13.90;;;9.98;;
11911;SDS011;6016;41.928;25.556;2023-07-13T06:41:04;16.23;;;10.05;;
11911;SDS011;6016;41.928;25.556;2023-07-13T06:43:31;14.98;;;9.80;;
11911;SDS011;6016;41.928;25.556;2023-07-13T06:45:58;16.67;;;10.07;;
11911;SDS011;6016;41.928;25.556;2023-07-13T06:48:27;13.20;;;10.27;;
11911;SDS011;6016;41.928;25.556;2023-07-13T06:50:54;16.58;;;10.00;;
11911;SDS011;6016;41.928;25.556;2023-07-13T06:53:21;16.83;;;10.02;;
11911;SDS011;6016;41.928;25.556;2023-07-13T06:55:49;14.77;;;9.75;;
11911;SDS011;6016;41.928;25.556;2023-07-13T06:58:17;17.02;;;9.85;;
11911;SDS011;6016;41.928;25.556;2023-07-13T07:00:44;16.40;;;9.40;;
11911;SDS011;6016;41.928;25.556;2023-07-13T07:03:11;18.00;;;10.43;;
11911;SDS011;6016;41.928;25.556;2023-07-13T07:05:40;16.13;;;10.18;;
11911;SDS011;6016;41.928;25.556;2023-07-13T07:08:06;14.77;;;9.60;;
11911;SDS011;6016;41.928;25.556;2023-07-13T07:10:33;17.77;;;9.80;;
11911;SDS011;6016;41.928;25.556;2023-07-13T07:13:01;18.58;;;9.70;;
11911;SDS011;6016;41.928;25.556;2023-07-13T07:15:28;13.90;;;8.98;;
11911;SDS011;6016;41.928;25.556;2023-07-13T07:17:55;17.77;;;10.32;;
11911;SDS011;6016;41.928;25.556;2023-07-13T07:20:22;16.08;;;9.57;;
11911;SDS011;6016;41.928;25.556;2023-07-13T07:22:51;18.63;;;9.27;;
11911;SDS011;6016;41.928;25.556;2023-07-13T07:25:17;17.05;;;9.15;;
11911;SDS011;6016;41.928;25.556;2023-07-13T07:27:45;15.90;;;9.10;;
11911;SDS011;6016;41.928;25.556;2023-07-13T07:30:12;16.90;;;8.80;;
11911;SDS011;6016;41.928;25.556;2023-07-13T07:32:40;19.90;;;9.20;;
11911;SDS011;6016;41.928;25.556;2023-07-13T07:35:08;13.23;;;8.50;;
11911;SDS011;6016;41.928;25.556;2023-07-13T07:37:35;13.55;;;8.57;;
11911;SDS011;6016;41.928;25.556;2023-07-13T07:40:04;16.05;;;9.05;;
11911;SDS011;6016;41.928;25.556;2023-07-13T07:42:31;14.77;;;8.73;;
11911;SDS011;6016;41.928;25.556;2023-07-13T07:44:58;13.05;;;8.77;;
11911;SDS011;6016;41.928;25.556;2023-07-13T07:47:25;12.15;;;8.73;;
11911;SDS011;6016;41.928;25.556;2023-07-13T07:49:52;12.07;;;8.40;;
11911;SDS011;6016;41.928;25.556;2023-07-13T07:52:19;14.65;;;8.75;;
11911;SDS011;6016;41.928;25.556;2023-07-13T07:54:46;12.43;;;8.65;;
11911;SDS011;6016;41.928;25.556;2023-07-13T07:57:14;13.60;;;8.48;;
11911;SDS011;6016;41.928;25.556;2023-07-13T07:59:41;15.57;;;8.60;;
11911;SDS011;6016;41.928;25.556;2023-07-13T08:02:08;13.10;;;8.88;;
11911;SDS011;6016;41.928;25.556;2023-07-13T08:04:36;10.40;;;8.00;;
11911;SDS011;6016;41.928;25.556;2023-07-13T08:07:03;11.45;;;8.35;;
11911;SDS011;6016;41.928;25.556;2023-07-13T08:09:31;13.27;;;8.43;;
11911;SDS011;6016;41.928;25.556;2023-07-13T08:11:58;12.18;;;8.00;;
11911;SDS011;6016;41.928;25.556;2023-07-13T08:14:26;13.25;;;7.88;;
11911;SDS011;6016;41.928;25.556;2023-07-13T08:16:53;16.67;;;7.88;;
11911;SDS011;6016;41.928;25.556;2023-07-13T08:19:20;14.13;;;7.43;;
11911;SDS011;6016;41.928;25.556;2023-07-13T08:21:47;15.82;;;7.85;;
11911;SDS011;6016;41.928;25.556;2023-07-13T08:24:14;15.70;;;7.75;;
11911;SDS011;6016;41.928;25.556;2023-07-13T08:26:43;12.23;;;7.60;;
11911;SDS011;6016;41.928;25.556;2023-07-13T08:29:10;15.60;;;6.95;;
11911;SDS011;6016;41.928;25.556;2023-07-13T08:31:38;10.57;;;8.05;;
11911;SDS011;6016;41.928;25.556;2023-07-13T08:34:05;11.43;;;8.25;;
11911;SDS011;6016;41.928;25.556;2023-07-13T08:36:32;13.85;;;7.70;;
11911;SDS011;6016;41.928;25.556;2023-07-13T08:38:59;12.52;;;7.95;;
11911;SDS011;6016;41.928;25.556;2023-07-13T08:41:25;16.52;;;8.05;;
11911;SDS011;6016;41.928;25.556;2023-07-13T08:43:56;15.07;;;7.82;;
11911;SDS011;6016;41.928;25.556;2023-07-13T08:48:57;13.95;;;8.20;;
11911;SDS011;6016;41.928;25.556;2023-07-13T08:51:28;14.20;;;8.40;;
11911;SDS011;6016;41.928;25.556;2023-07-13T08:54:07;8.68;;;7.55;;
11911;SDS011;6016;41.928;25.556;2023-07-13T08:56:40;14.07;;;7.68;;
11911;SDS011;6016;41.928;25.556;2023-07-13T08:59:09;13.45;;;7.25;;
11911;SDS011;6016;41.928;25.556;2023-07-13T09:01:45;10.15;;;7.38;;
11911;SDS011;6016;41.928;25.556;2023-07-13T09:04:23;12.98;;;7.53;;
11911;SDS011;6016;41.928;25.556;2023-07-13T09:06:58;10.30;;;7.47;;
11911;SDS011;6016;41.928;25.556;2023-07-13T09:09:33;13.80;;;8.27;;
11911;SDS011;6016;41.928;25.556;2023-07-13T09:12:11;17.02;;;7.95;;
11911;SDS011;6016;41.928;25.556;2023-07-13T09:14:45;12.98;;;8.15;;
11911;SDS011;6016;41.928;25.556;2023-07-13T09:17:16;14.20;;;7.55;;
11911;SDS011;6016;41.928;25.556;2023-07-13T09:19:48;12.23;;;6.88;;
11911;SDS011;6016;41.928;25.556;2023-07-13T09:22:19;12.48;;;7.28;;
11911;SDS011;6016;41.928;25.556;2023-07-13T09:24:50;13.07;;;7.40;;
11911;SDS011;6016;41.928;25.556;2023-07-13T09:27:23;11.10;;;6.55;;
11911;SDS011;6016;41.928;25.556;2023-07-13T09:29:57;10.85;;;7.40;;
11911;SDS011;6016;41.928;25.556;2023-07-13T09:32:30;11.43;;;7.15;;
11911;SDS011;6016;41.928;25.556;2023-07-13T09:35:00;11.75;;;7.75;;
11911;SDS011;6016;41.928;25.556;2023-07-13T09:37:29;11.10;;;7.45;;
11911;SDS011;6016;41.928;25.556;2023-07-13T09:39:58;11.65;;;7.43;;
11911;SDS011;6016;41.928;25.556;2023-07-13T09:42:30;11.55;;;7.32;;
11911;SDS011;6016;41.928;25.556;2023-07-13T09:44:59;10.43;;;7.63;;
11911;SDS011;6016;41.928;25.556;2023-07-13T09:47:29;9.15;;;7.22;;
11911;SDS011;6016;41.928;25.556;2023-07-13T09:49:58;10.52;;;6.85;;
11911;SDS011;6016;41.928;25.556;2023-07-13T09:52:39;12.20;;;5.70;;
11911;SDS011;6016;41.928;25.556;2023-07-13T09:55:23;8.93;;;5.97;;
11911;SDS011;6016;41.928;25.556;2023-07-13T09:57:51;9.73;;;6.15;;
11911;SDS011;6016;41.928;25.556;2023-07-13T10:00:20;10.57;;;6.20;;
11911;SDS011;6016;41.928;25.556;2023-07-13T10:02:52;9.68;;;5.95;;
11911;SDS011;6016;41.928;25.556;2023-07-13T10:05:26;10.68;;;6.00;;
11911;SDS011;6016;41.928;25.556;2023-07-13T10:07:53;9.15;;;5.75;;
11911;SDS011;6016;41.928;25.556;2023-07-13T10:10:22;9.68;;;5.70;;
11911;SDS011;6016;41.928;25.556;2023-07-13T10:12:49;7.88;;;5.82;;
11911;SDS011;6016;41.928;25.556;2023-07-13T10:15:18;8.60;;;5.90;;
11911;SDS011;6016;41.928;25.556;2023-07-13T10:17:47;16.40;;;7.40;;
11911;SDS011;6016;41.928;25.556;2023-07-13T10:20:15;8.90;;;6.30;;
11911;SDS011;6016;41.928;25.556;2023-07-13T10:22:51;8.70;;;5.88;;
11911;SDS011;6016;41.928;25.556;2023-07-13T10:25:21;10.68;;;6.07;;
11911;SDS011;6016;41.928;25.556;2023-07-13T10:27:50;9.65;;;5.63;;
11911;SDS011;6016;41.928;25.556;2023-07-13T10:30:21;8.00;;;5.65;;
11911;SDS011;6016;41.928;25.556;2023-07-13T10:32:50;7.13;;;5.57;;
11911;SDS011;6016;41.928;25.556;2023-07-13T10:35:19;10.32;;;5.55;;
11911;SDS011;6016;41.928;25.556;2023-07-13T10:37:49;9.50;;;6.05;;
11911;SDS011;6016;41.928;25.556;2023-07-13T10:40:22;8.30;;;5.50;;
11911;SDS011;6016;41.928;25.556;2023-07-13T10:42:55;10.32;;;5.70;;
11911;SDS011;6016;41.928;25.556;2023-07-13T10:45:25;8.48;;;6.13;;
11911;SDS011;6016;41.928;25.556;2023-07-13T10:47:56;9.48;;;5.70;;
11911;SDS011;6016;41.928;25.556;2023-07-13T10:50:24;8.48;;;6.10;;
11911;SDS011;6016;41.928;25.556;2023-07-13T10:52:54;9.93;;;5.80;;
11911;SDS011;6016;41.928;25.556;2023-07-13T10:55:36;12.30;;;6.05;;
11911;SDS011;6016;41.928;25.556;2023-07-13T10:58:12;10.52;;;6.22;;
11911;SDS011;6016;41.928;25.556;2023-07-13T11:00:46;13.45;;;6.10;;
11911;SDS011;6016;41.928;25.556;2023-07-13T11:03:16;8.15;;;5.95;;
11911;SDS011;6016;41.928;25.556;2023-07-13T11:05:47;8.68;;;5.65;;
11911;SDS011;6016;41.928;25.556;2023-07-13T11:08:18;9.50;;;5.55;;
11911;SDS011;6016;41.928;25.556;2023-07-13T11:10:52;12.73;;;5.43;;
11911;SDS011;6016;41.928;25.556;2023-07-13T11:13:36;7.97;;;5.22;;
11911;SDS011;6016;41.928;25.556;2023-07-13T11:16:26;8.52;;;5.40;;
11911;SDS011;6016;41.928;25.556;2023-07-13T11:19:08;12.00;;;5.90;;
11911;SDS011;6016;41.928;25.556;2023-07-13T11:24:33;9.10;;;5.00;;
11911;SDS011;6016;41.928;25.556;2023-07-13T11:27:21;9.82;;;5.40;;
11911;SDS011;6016;41.928;25.556;2023-07-13T11:29:57;7.32;;;5.50;;
11911;SDS011;6016;41.928;25.556;2023-07-13T11:32:33;9.52;;;5.15;;
11911;SDS011;6016;41.928;25.556;2023-07-13T11:35:01;9.30;;;5.43;;
11911;SDS011;6016;41.928;25.556;2023-07-13T11:37:28;7.63;;;5.63;;
11911;SDS011;6016;41.928;25.556;2023-07-13T11:39:58;10.23;;;5.40;;
11911;SDS011;6016;41.928;25.556;2023-07-13T11:42:25;10.48;;;5.50;;
11911;SDS011;6016;41.928;25.556;2023-07-13T11:44:52;7.57;;;5.60;;
11911;SDS011;6016;41.928;25.556;2023-07-13T11:47:22;9.25;;;5.57;;
11911;SDS011;6016;41.928;25.556;2023-07-13T11:49:51;9.93;;;5.50;;
11911;SDS011;6016;41.928;25.556;2023-07-13T11:52:22;12.73;;;6.43;;
11911;SDS011;6016;41.928;25.556;2023-07-13T11:54:56;8.50;;;5.18;;
11911;SDS011;6016;41.928;25.556;2023-07-13T11:57:27;10.32;;;5.50;;
11911;SDS011;6016;41.928;25.556;2023-07-13T11:59:56;8.30;;;5.38;;
11911;SDS011;6016;41.928;25.556;2023-07-13T12:02:26;8.10;;;5.40;;
11911;SDS011;6016;41.928;25.556;2023-07-13T12:04:55;7.20;;;5.43;;
11911;SDS011;6016;41.928;25.556;2023-07-13T12:07:23;10.00;;;5.55;;
11911;SDS011;6016;41.928;25.556;2023-07-13T12:09:50;10.35;;;5.35;;
11911;SDS011;6016;41.928;25.556;2023-07-13T12:12:19;9.05;;;5.32;;
11911;SDS011;6016;41.928;25.556;2023-07-13T12:14:50;9.75;;;5.00;;
11911;SDS011;6016;41.928;25.556;2023-07-13T12:17:18;7.97;;;5.15;;
11911;SDS011;6016;41.928;25.556;2023-07-13T12:19:47;8.77;;;5.13;;
11911;SDS011;6016;41.928;25.556;2023-07-13T12:22:14;10.75;;;5.50;;
11911;SDS011;6016;41.928;25.556;2023-07-13T12:24:44;7.55;;;4.85;;
11911;SDS011;6016;41.928;25.556;2023-07-13T12:27:18;7.10;;;4.95;;
11911;SDS011;6016;41.928;25.556;2023-07-13T12:29:49;6.45;;;5.07;;
11911;SDS011;6016;41.928;25.556;2023-07-13T12:32:19;9.88;;;5.38;;
11911;SDS011;6016;41.928;25.556;2023-07-13T12:34:52;7.93;;;5.35;;
11911;SDS011;6016;41.928;25.556;2023-07-13T12:37:21;7.45;;;5.18;;
11911;SDS011;6016;41.928;25.556;2023-07-13T12:39:48;7.47;;;5.00;;
11911;SDS011;6016;41.928;25.556;2023-07-13T12:42:21;6.88;;;5.30;;
11911;SDS011;6016;41.928;25.556;2023-07-13T12:44:52;6.25;;;4.90;;
11911;SDS011;6016;41.928;25.556;2023-07-13T12:47:23;7.05;;;4.93;;
11911;SDS011;6016;41.928;25.556;2023-07-13T12:49:52;6.32;;;5.30;;
11911;SDS011;6016;41.928;25.556;2023-07-13T12:52:21;10.55;;;5.03;;
11911;SDS011;6016;41.928;25.556;2023-07-13T12:54:52;7.05;;;4.80;;
11911;SDS011;6016;41.928;25.556;2023-07-13T12:57:23;11.05;;;5.20;;
11911;SDS011;6016;41.928;25.556;2023-07-13T12:59:51;8.25;;;5.20;;
11911;SDS011;6016;41.928;25.556;2023-07-13T13:02:23;10.50;;;5.65;;
11911;SDS011;6016;41.928;25.556;2023-07-13T13:04:56;6.85;;;4.88;;
11911;SDS011;6016;41.928;25.556;2023-07-13T13:07:23;8.70;;;5.15;;
11911;SDS011;6016;41.928;25.556;2023-07-13T13:09:51;7.45;;;4.85;;
11911;SDS011;6016;41.928;25.556;2023-07-13T13:12:20;6.57;;;4.70;;
11911;SDS011;6016;41.928;25.556;2023-07-13T13:14:48;7.63;;;5.15;;
11911;SDS011;6016;41.928;25.556;2023-07-13T13:17:18;7.25;;;4.88;;
11911;SDS011;6016;41.928;25.556;2023-07-13T13:19:46;9.35;;;5.10;;
11911;SDS011;6016;41.928;25.556;2023-07-13T13:22:14;8.38;;;5.00;;
11911;SDS011;6016;41.928;25.556;2023-07-13T13:24:41;6.97;;;4.97;;
11911;SDS011;6016;41.928;25.556;2023-07-13T13:27:10;7.07;;;4.82;;
11911;SDS011;6016;41.928;25.556;2023-07-13T13:29:42;11.18;;;5.22;;
11911;SDS011;6016;41.928;25.556;2023-07-13T13:32:11;7.22;;;4.70;;
11911;SDS011;6016;41.928;25.556;2023-07-13T13:34:39;8.23;;;4.85;;
11911;SDS011;6016;41.928;25.556;2023-07-13T13:37:09;8.18;;;4.80;;
11911;SDS011;6016;41.928;25.556;2023-07-13T13:39:44;7.22;;;4.80;;
11911;SDS011;6016;41.928;25.556;2023-07-13T13:42:12;8.13;;;4.93;;
11911;SDS011;6016;41.928;25.556;2023-07-13T13:44:39;7.53;;;5.00;;
11911;SDS011;6016;41.928;25.556;2023-07-13T13:47:21;7.88;;;4.75;;
11911;SDS011;6016;41.928;25.556;2023-07-13T13:49:57;7.65;;;4.85;;
11911;SDS011;6016;41.928;25.556;2023-07-13T13:52:23;7.60;;;4.80;;
11911;SDS011;6016;41.928;25.556;2023-07-13T13:54:50;5.95;;;4.90;;
11911;SDS011;6016;41.928;25.556;2023-07-13T13:57:21;9.20;;;4.93;;
11911;SDS011;6016;41.928;25.556;2023-07-13T13:59:49;8.18;;;4.90;;
11911;SDS011;6016;41.928;25.556;2023-07-13T14:02:20;7.70;;;4.70;;
11911;SDS011;6016;41.928;25.556;2023-07-13T14:04:51;7.55;;;4.80;;
11911;SDS011;6016;41.928;25.556;2023-07-13T14:07:21;7.38;;;4.82;;
11911;SDS011;6016;41.928;25.556;2023-07-13T14:09:47;6.90;;;4.78;;
11911;SDS011;6016;41.928;25.556;2023-07-13T14:12:15;6.55;;;4.78;;
11911;SDS011;6016;41.928;25.556;2023-07-13T14:14:42;7.25;;;4.60;;
11911;SDS011;6016;41.928;25.556;2023-07-13T14:17:12;5.25;;;4.70;;
11911;SDS011;6016;41.928;25.556;2023-07-13T14:19:47;7.25;;;4.90;;
11911;SDS011;6016;41.928;25.556;2023-07-13T14:22:17;10.20;;;5.05;;
11911;SDS011;6016;41.928;25.556;2023-07-13T14:24:45;7.15;;;4.55;;
11911;SDS011;6016;41.928;25.556;2023-07-13T14:27:12;6.75;;;4.75;;
11911;SDS011;6016;41.928;25.556;2023-07-13T14:29:39;7.32;;;4.78;;
11911;SDS011;6016;41.928;25.556;2023-07-13T14:32:08;7.75;;;4.88;;
11911;SDS011;6016;41.928;25.556;2023-07-13T14:34:36;5.82;;;4.65;;
11911;SDS011;6016;41.928;25.556;2023-07-13T14:37:03;7.72;;;5.15;;
11911;SDS011;6016;41.928;25.556;2023-07-13T14:39:32;6.90;;;4.63;;
11911;SDS011;6016;41.928;25.556;2023-07-13T14:41:59;6.20;;;4.80;;
11911;SDS011;6016;41.928;25.556;2023-07-13T14:44:27;6.65;;;4.68;;
11911;SDS011;6016;41.928;25.556;2023-07-13T14:46:55;7.43;;;4.90;;